Time;durP1;ratioP1;P1;durP2;ratioP2;P2;SDS_P1;SDS_P2;PMS_P1;PMS_P2;Temp;Humidity;BMP_temperature;BMP_pressure;BME280_temperature;BME280_humidity;BME280_pressure;Samples;Min_cycle;Max_cycle;Signal;HPM_P1;HPM_P2
2021/10/09 00:00:35;;;;;;;8.57;3.17;;;18.10;55.80;;;;;;6200116;28;20061;-80
2021/10/09 00:03:36;;;;;;;5.13;2.92;;;18.10;55.80;;;;;;6197040;28;20034;-81
2021/10/09 00:06:37;;;;;;;6.50;3.05;;;18.10;55.80;;;;;;6176867;28;20399;-81
2021/10/09 00:09:38;;;;;;;4.90;2.63;;;18.10;55.90;;;;;;6199391;28;20045;-80
2021/10/09 00:12:38;;;;;;;7.20;2.83;;;18.20;55.90;;;;;;6197816;28;20045;-81
2021/10/09 00:15:40;;;;;;;3.70;2.63;;;18.10;56.00;;;;;;6196360;28;20034;-81
2021/10/09 00:18:40;;;;;;;4.53;2.47;;;18.10;56.10;;;;;;6198938;28;20483;-80
2021/10/09 00:21:45;;;;;;;3.92;2.55;;;18.10;56.10;;;;;;6198768;28;20057;-81
2021/10/09 00:24:47;;;;;;;6.45;2.22;;;18.10;56.10;;;;;;6197904;28;20030;-81
2021/10/09 00:27:49;;;;;;;5.60;3.08;;;19.10;56.60;;;;;;6206204;28;20050;-81
2021/10/09 00:30:50;;;;;;;5.15;2.45;;;18.10;56.10;;;;;;6205289;28;20383;-81
2021/10/09 00:33:51;;;;;;;5.15;2.83;;;18.10;56.00;;;;;;6205053;28;20030;-81
2021/10/09 00:36:52;;;;;;;3.60;2.42;;;18.10;56.00;;;;;;6185076;28;20034;-81
2021/10/09 00:39:53;;;;;;;4.05;2.25;;;18.10;56.10;;;;;;6198738;28;20041;-81
2021/10/09 00:42:54;;;;;;;4.22;2.60;;;18.10;56.10;;;;;;6176362;28;20353;-80
2021/10/09 00:45:58;;;;;;;3.88;2.83;;;18.10;56.10;;;;;;6197196;28;20031;-80
2021/10/09 00:48:59;;;;;;;3.95;2.50;;;18.10;56.10;;;;;;6204240;28;20116;-80
2021/10/09 00:52:05;;;;;;;3.88;2.50;;;18.10;56.10;;;;;;6221594;28;20095;-81
2021/10/09 00:55:06;;;;;;;4.80;2.42;;;18.10;56.10;;;;;;6224648;28;20037;-80
2021/10/09 00:58:08;;;;;;;5.07;2.55;;;18.10;56.10;;;;;;6208384;28;20038;-81
2021/10/09 01:01:09;;;;;;;6.38;2.20;;;18.10;56.10;;;;;;6197489;28;20030;-81
2021/10/09 01:04:10;;;;;;;5.05;2.40;;;18.10;56.10;;;;;;6180889;28;20486;-81
2021/10/09 01:07:11;;;;;;;11.90;3.55;;;18.00;56.10;;;;;;6182012;28;20144;-81
2021/10/09 01:10:13;;;;;;;6.43;3.25;;;18.00;56.20;;;;;;6182533;28;20048;-81
2021/10/09 01:13:15;;;;;;;3.95;2.60;;;18.00;56.20;;;;;;6198443;28;20049;-81
2021/10/09 01:16:20;;;;;;;4.13;2.33;;;18.00;56.40;;;;;;6172529;28;20459;-80
2021/10/09 01:19:21;;;;;;;5.05;2.45;;;18.00;56.30;;;;;;6198336;28;20112;-81
2021/10/09 01:22:40;;;;;;;7.10;2.35;;;18.00;56.30;;;;;;6192368;28;20038;-81
2021/10/09 01:25:42;;;;;;;5.70;2.42;;;18.00;56.30;;;;;;6196467;28;20041;-81
2021/10/09 01:28:49;;;;;;;6.40;2.42;;;18.00;56.40;;;;;;6171666;28;20041;-80
2021/10/09 01:31:50;;;;;;;4.95;2.75;;;18.00;56.40;;;;;;6180986;28;20053;-81
2021/10/09 01:34:52;;;;;;;3.90;2.53;;;18.00;56.40;;;;;;6184054;28;20169;-80
2021/10/09 01:37:56;;;;;;;5.80;2.65;;;18.00;56.50;;;;;;6186006;28;20031;-80
2021/10/09 01:40:58;;;;;;;6.00;3.08;;;18.00;56.70;;;;;;6179701;28;20105;-80
2021/10/09 01:43:59;;;;;;;5.35;2.50;;;18.00;56.60;;;;;;6193435;28;20034;-81
2021/10/09 01:47:00;;;;;;;7.57;2.40;;;18.00;56.60;;;;;;6198771;28;20057;-81
2021/10/09 01:50:07;;;;;;;6.22;2.60;;;18.00;56.60;;;;;;6190847;28;20086;-81
2021/10/09 01:53:09;;;;;;;8.45;2.67;;;18.00;56.50;;;;;;6219594;28;20054;-81
2021/10/09 01:56:11;;;;;;;12.77;3.13;;;18.00;56.50;;;;;;6190726;28;20113;-81
2021/10/09 01:59:13;;;;;;;6.50;2.40;;;18.00;56.50;;;;;;6203722;28;20046;-81
2021/10/09 02:02:24;;;;;;;4.45;2.50;;;18.00;56.50;;;;;;6213669;28;20038;-81
2021/10/09 02:05:25;;;;;;;3.95;2.58;;;18.00;56.40;;;;;;6189538;28;20087;-81
2021/10/09 02:08:27;;;;;;;4.72;2.70;;;18.00;56.50;;;;;;6222228;28;20049;-81
2021/10/09 02:11:40;;;;;;;6.38;2.33;;;18.00;56.50;;;;;;6196393;28;20034;-80
2021/10/09 02:14:52;;;;;;;8.70;2.80;;;18.00;56.50;;;;;;6199947;28;20046;-81
2021/10/09 02:24:52;;;;;;;5.20;3.05;;;17.70;57.30;;;;;;6201273;28;20479;-80
2021/10/09 02:27:57;;;;;;;8.23;3.15;;;17.60;57.60;;;;;;6198865;28;20038;-80
2021/10/09 02:30:58;;;;;;;11.73;3.83;;;17.60;57.90;;;;;;6186028;28;20100;-80
2021/10/09 02:34:02;;;;;;;7.18;3.00;;;17.50;58.00;;;;;;6200095;28;20038;-81
2021/10/09 02:37:03;;;;;;;11.43;3.35;;;17.40;58.20;;;;;;6200379;28;20034;-80
2021/10/09 02:40:10;;;;;;;10.15;4.03;;;17.40;58.40;;;;;;6198594;28;20114;-80
2021/10/09 02:43:13;;;;;;;9.18;3.75;;;17.30;58.50;;;;;;6183097;28;20073;-81
2021/10/09 02:46:14;;;;;;;7.75;3.50;;;17.30;58.60;;;;;;6203406;28;20444;-81
2021/10/09 02:49:16;;;;;;;9.80;3.47;;;17.30;58.80;;;;;;6190923;28;20053;-81
2021/10/09 02:52:18;;;;;;;7.25;3.70;;;17.30;58.90;;;;;;6211013;28;20034;-80
2021/10/09 02:55:20;;;;;;;9.40;3.83;;;17.30;58.90;;;;;;6222845;28;20074;-80
2021/10/09 02:58:23;;;;;;;5.32;3.40;;;17.30;59.00;;;;;;6198337;28;20493;-80
2021/10/09 03:01:24;;;;;;;7.65;3.95;;;17.20;59.00;;;;;;6216036;28;20031;-80
2021/10/09 03:04:25;;;;;;;17.77;3.88;;;17.20;59.00;;;;;;6184622;28;20034;-81
2021/10/09 03:07:26;;;;;;;12.32;3.50;;;17.20;59.00;;;;;;6213757;28;20065;-81
2021/10/09 03:10:27;;;;;;;10.52;3.60;;;17.10;59.00;;;;;;6220793;28;20120;-80
2021/10/09 03:13:29;;;;;;;7.25;3.80;;;17.10;59.20;;;;;;6222233;28;20103;-81
2021/10/09 03:16:31;;;;;;;10.45;3.38;;;17.10;59.30;;;;;;6223789;28;20502;-80
2021/10/09 03:19:33;;;;;;;15.13;3.90;;;17.00;59.30;;;;;;6204347;28;20366;-80
2021/10/09 03:22:35;;;;;;;8.85;3.70;;;17.00;59.50;;;;;;6202470;28;20050;-81
2021/10/09 03:25:37;;;;;;;7.45;3.72;;;16.90;59.60;;;;;;6178390;28;20030;-81
2021/10/09 03:28:40;;;;;;;9.48;3.42;;;16.90;59.70;;;;;;6194792;28;20050;-81
2021/10/09 03:31:41;;;;;;;8.80;3.72;;;16.90;59.80;;;;;;6193294;28;20122;-80
2021/10/09 03:34:42;;;;;;;9.35;3.80;;;16.90;59.90;;;;;;6197736;28;20097;-81
2021/10/09 03:37:43;;;;;;;9.38;4.32;;;16.90;59.90;;;;;;6183077;28;20507;-81
2021/10/09 03:40:48;;;;;;;5.50;3.65;;;16.80;59.90;;;;;;6213961;28;20113;-81
2021/10/09 03:43:49;;;;;;;6.95;3.67;;;16.80;60.00;;;;;;6221862;28;20092;-82
2021/10/09 03:47:07;;;;;;;7.68;3.70;;;16.80;60.10;;;;;;6216655;28;20125;-81
2021/10/09 03:50:34;;;;;;;8.55;3.85;;;16.80;60.10;;;;;;6221589;28;20128;-81
2021/10/09 03:53:37;;;;;;;7.57;4.17;;;16.80;60.20;;;;;;6210906;28;20049;-81
2021/10/09 03:56:39;;;;;;;7.55;3.50;;;16.80;60.20;;;;;;6207947;28;20265;-82
2021/10/09 03:59:40;;;;;;;6.50;3.50;;;16.80;60.40;;;;;;6204280;28;20344;-81
2021/10/09 04:02:41;;;;;;;6.95;3.35;;;16.80;60.50;;;;;;6205008;28;20188;-80
2021/10/09 04:05:45;;;;;;;8.30;3.50;;;16.80;60.70;;;;;;6175620;28;20440;-82
2021/10/09 04:08:47;;;;;;;6.93;3.17;;;16.80;60.70;;;;;;6221310;28;20455;-81
2021/10/09 04:11:51;;;;;;;6.38;3.40;;;16.80;60.70;;;;;;6220545;28;20052;-80
2021/10/09 04:14:52;;;;;;;6.43;3.50;;;16.70;60.50;;;;;;6197212;28;20066;-81
2021/10/09 04:17:53;;;;;;;8.07;3.10;;;16.70;60.40;;;;;;6180882;28;20048;-81
2021/10/09 04:20:54;;;;;;;10.50;3.35;;;16.70;60.20;;;;;;6185519;28;20120;-82
2021/10/09 04:23:56;;;;;;;8.65;3.05;;;16.60;60.10;;;;;;6166879;28;20030;-82
2021/10/09 04:26:58;;;;;;;10.30;3.78;;;16.60;60.10;;;;;;6190575;28;20041;-81
2021/10/09 04:29:59;;;;;;;20.42;3.25;;;16.50;60.00;;;;;;6181246;28;20045;-81
2021/10/09 04:33:01;;;;;;;9.40;3.20;;;16.50;60.10;;;;;;6202790;28;20105;-81
2021/10/09 04:36:04;;;;;;;5.68;3.70;;;16.40;60.00;;;;;;6203718;28;20042;-81
2021/10/09 04:39:05;;;;;;;9.82;3.58;;;16.40;60.20;;;;;;6220646;28;20034;-80
2021/10/09 04:42:08;;;;;;;13.82;3.72;;;16.30;60.20;;;;;;6220676;28;20482;-81
2021/10/09 04:45:11;;;;;;;4.43;3.30;;;16.30;60.30;;;;;;6194755;28;20049;-82
2021/10/09 04:48:18;;;;;;;5.28;3.45;;;16.30;60.40;;;;;;6203392;28;20116;-81
2021/10/09 04:51:19;;;;;;;11.20;3.88;;;16.30;60.50;;;;;;6196922;28;20042;-81
2021/10/09 04:54:20;;;;;;;4.32;3.20;;;16.20;60.50;;;;;;6197084;28;20041;-81
2021/10/09 04:57:22;;;;;;;4.53;3.53;;;16.20;60.60;;;;;;6190725;28;20031;-81
2021/10/09 05:00:23;;;;;;;6.28;3.58;;;16.20;60.70;;;;;;6196503;28;20039;-81
2021/10/09 05:03:25;;;;;;;7.82;3.35;;;16.20;60.70;;;;;;6185107;28;20065;-80
2021/10/09 05:06:26;;;;;;;14.10;3.20;;;16.20;60.60;;;;;;6218392;28;20369;-81
2021/10/09 05:09:28;;;;;;;4.63;3.08;;;16.20;60.60;;;;;;6217635;28;20084;-81
2021/10/09 05:12:29;;;;;;;6.80;3.42;;;16.20;60.60;;;;;;6177783;28;20042;-81
2021/10/09 05:15:30;;;;;;;6.40;2.88;;;16.20;60.50;;;;;;6209356;28;20061;-81
2021/10/09 05:18:33;;;;;;;5.60;3.15;;;16.20;60.60;;;;;;6175380;28;20045;-81
2021/10/09 05:21:34;;;;;;;12.65;3.33;;;16.20;60.60;;;;;;6198338;28;20034;-81
2021/10/09 05:24:35;;;;;;;8.05;3.28;;;16.10;60.50;;;;;;6176617;28;20529;-80
2021/10/09 05:27:38;;;;;;;12.77;3.28;;;16.10;60.60;;;;;;6206580;28;20046;-82
2021/10/09 05:30:46;;;;;;;4.88;3.30;;;16.20;60.70;;;;;;6203698;28;20058;-81
2021/10/09 05:33:49;;;;;;;5.38;3.30;;;16.10;60.70;;;;;;6200015;28;20045;-80
2021/10/09 05:36:51;;;;;;;5.75;2.88;;;16.20;60.70;;;;;;6193337;28;20038;-81
2021/10/09 05:39:52;;;;;;;5.75;3.63;;;16.10;60.70;;;;;;6185893;28;20053;-80
2021/10/09 05:42:56;;;;;;;7.82;3.55;;;16.10;60.90;;;;;;6204961;28;20030;-81
2021/10/09 05:45:59;;;;;;;9.27;3.47;;;16.20;61.00;;;;;;6203449;28;20085;-80
2021/10/09 05:49:01;;;;;;;11.02;4.50;;;16.20;61.10;;;;;;6181234;28;20121;-82
2021/10/09 05:52:19;;;;;;;6.93;3.10;;;16.10;61.00;;;;;;6201788;28;20391;-81
2021/10/09 05:55:28;;;;;;;4.38;3.08;;;17.10;61.70;;;;;;6185289;28;20035;-80
2021/10/09 06:42:05;;;;;;;10.05;3.30;;;16.50;61.90;;;;;;6192709;28;20054;-77
2021/10/09 07:01:25;;;;;;;12.80;5.15;;;16.70;60.90;;;;;;6184490;28;20034;-81
2021/10/09 07:04:26;;;;;;;9.65;4.20;;;16.80;60.90;;;;;;6194879;28;20034;-81
2021/10/09 07:07:27;;;;;;;6.47;3.70;;;16.80;60.80;;;;;;6220264;28;20041;-83
2021/10/09 07:10:47;;;;;;;5.30;2.88;;;16.90;60.80;;;;;;6182433;28;20031;-81
2021/10/09 07:13:49;;;;;;;20.17;4.15;;;16.90;60.80;;;;;;6193536;28;20106;-80
2021/10/09 07:16:50;;;;;;;7.43;3.75;;;16.90;60.70;;;;;;6198046;28;20126;-81
2021/10/09 07:19:53;;;;;;;6.30;3.45;;;17.00;60.70;;;;;;6179042;28;20081;-81
2021/10/09 07:22:56;;;;;;;6.45;3.53;;;17.00;60.40;;;;;;6196144;28;20033;-81
2021/10/09 07:25:57;;;;;;;10.35;3.60;;;17.10;60.40;;;;;;6173060;28;20114;-81
2021/10/09 07:28:59;;;;;;;5.88;3.25;;;17.10;60.20;;;;;;6191662;28;20033;-81
2021/10/09 07:32:00;;;;;;;13.70;3.88;;;17.20;60.20;;;;;;6163784;28;20093;-81
2021/10/09 07:35:01;;;;;;;6.63;2.90;;;17.20;60.00;;;;;;6210286;28;20038;-80
2021/10/09 07:38:02;;;;;;;5.47;3.15;;;17.30;59.90;;;;;;6210836;28;20458;-81
2021/10/09 07:41:04;;;;;;;5.90;3.30;;;17.30;59.70;;;;;;6206333;28;20046;-82
2021/10/09 07:44:05;;;;;;;9.25;2.70;;;17.50;59.70;;;;;;6186253;28;20057;-81
2021/10/09 07:47:09;;;;;;;7.43;2.55;;;17.60;59.50;;;;;;6200760;28;20042;-81
2021/10/09 07:50:12;;;;;;;4.78;2.80;;;17.70;59.30;;;;;;6199917;28;20053;-81
2021/10/09 07:53:13;;;;;;;5.65;2.50;;;17.80;58.90;;;;;;6197864;28;20376;-81
2021/10/09 07:56:14;;;;;;;3.70;2.28;;;17.80;58.80;;;;;;6213305;28;20037;-81
2021/10/09 07:59:15;;;;;;;5.85;3.20;;;17.90;58.60;;;;;;6205231;28;20053;-82
2021/10/09 08:02:17;;;;;;;5.90;2.55;;;18.00;58.50;;;;;;6192020;28;20158;-82
2021/10/09 08:05:22;;;;;;;3.95;2.70;;;18.00;58.00;;;;;;6197381;28;20449;-81
2021/10/09 08:08:23;;;;;;;5.10;2.40;;;18.10;57.90;;;;;;6216296;28;20049;-81
2021/10/09 08:11:25;;;;;;;5.18;2.78;;;18.20;57.50;;;;;;6199105;28;20049;-81
2021/10/09 08:14:26;;;;;;;6.82;2.45;;;18.30;57.20;;;;;;6208153;28;20450;-81
2021/10/09 08:17:27;;;;;;;6.40;2.17;;;18.30;56.80;;;;;;6202149;28;20984;-81
2021/10/09 08:20:27;;;;;;;5.95;2.03;;;18.40;56.70;;;;;;6222375;28;20470;-81
2021/10/09 08:23:38;;;;;;;18.98;2.67;;;18.50;56.60;;;;;;6202056;28;20439;-80
2021/10/09 08:27:06;;;;;;;6.35;3.22;;;18.50;56.50;;;;;;6229189;28;20033;-81
2021/10/09 08:37:05;;;;;;;5.95;3.55;;;18.80;56.00;;;;;;6223571;28;20429;-82
2021/10/09 08:40:07;;;;;;;6.05;3.60;;;18.90;55.90;;;;;;6195490;28;20097;-82
2021/10/09 08:43:08;;;;;;;7.80;3.97;;;19.00;55.80;;;;;;6197430;28;22247;-82
2021/10/09 08:46:11;;;;;;;4.65;3.30;;;19.20;55.60;;;;;;6202952;28;20045;-81
2021/10/09 08:49:14;;;;;;;10.48;3.72;;;19.30;55.40;;;;;;6218761;28;20037;-82
2021/10/09 08:52:22;;;;;;;5.65;3.40;;;19.40;55.00;;;;;;6215966;28;20053;-82
2021/10/09 08:55:26;;;;;;;13.27;6.28;;;19.50;54.60;;;;;;6195823;28;20038;-82
2021/10/09 08:58:40;;;;;;;6.20;3.30;;;19.60;54.40;;;;;;6179849;28;20173;-82
2021/10/09 09:01:54;;;;;;;8.93;4.55;;;19.70;54.10;;;;;;6201961;28;20184;-82
2021/10/09 09:32:06;;;;;;;4.90;2.28;;;19.60;53.20;;;;;;6202144;28;20054;-82
2021/10/09 09:35:21;;;;;;;7.07;3.80;;;19.70;52.90;;;;;;6205621;28;20034;-82
2021/10/09 09:41:50;;;;;;;4.40;2.22;;;19.70;52.20;;;;;;6194739;28;20034;-79
2021/10/09 09:44:56;;;;;;;3.92;2.33;;;19.60;52.00;;;;;;6191178;28;20046;-80
2021/10/09 09:48:00;;;;;;;12.32;5.55;;;19.60;51.90;;;;;;6202212;28;20069;-80
2021/10/09 09:51:00;;;;;;;3.70;2.15;;;19.60;51.40;;;;;;6198353;28;20057;-79
2021/10/09 09:54:01;;;;;;;3.25;2.53;;;19.60;51.30;;;;;;6200431;28;20336;-79
2021/10/09 09:57:03;;;;;;;7.28;3.67;;;19.60;51.60;;;;;;6216666;28;20238;-80
2021/10/09 10:00:06;;;;;;;6.05;3.00;;;19.70;51.30;;;;;;6200367;28;20417;-78
2021/10/09 10:03:13;;;;;;;2.80;2.30;;;19.70;51.00;;;;;;6206698;28;20030;-79
2021/10/09 10:06:15;;;;;;;5.13;2.90;;;19.70;51.00;;;;;;6193992;28;20081;-79
2021/10/09 10:09:17;;;;;;;6.63;2.20;;;19.80;51.00;;;;;;6204062;28;20465;-80
2021/10/09 10:12:19;;;;;;;3.88;2.70;;;19.90;50.90;;;;;;6200384;28;20123;-82
2021/10/09 10:15:24;;;;;;;6.18;2.35;;;20.10;50.50;;;;;;6183119;28;20610;-80
2021/10/09 10:18:52;;;;;;;3.20;2.67;;;20.30;50.20;;;;;;6223569;28;20052;-80
2021/10/09 10:21:53;;;;;;;3.88;2.45;;;20.60;49.50;;;;;;6198844;28;20030;-80
2021/10/09 10:24:55;;;;;;;4.80;2.40;;;20.80;48.60;;;;;;6202247;28;20130;-82
2021/10/09 10:28:01;;;;;;;4.97;2.90;;;21.10;47.90;;;;;;6172491;28;20430;-81
2021/10/09 10:31:03;;;;;;;3.42;2.28;;;21.30;47.40;;;;;;6203268;28;20048;-80
2021/10/09 10:34:23;;;;;;;3.35;2.30;;;21.50;46.50;;;;;;6183477;28;20045;-80
2021/10/09 10:37:34;;;;;;;5.35;2.45;;;21.60;46.10;;;;;;6166541;28;20070;-82
2021/10/09 10:40:46;;;;;;;10.27;2.80;;;21.80;45.60;;;;;;6167729;28;20081;-81
2021/10/09 10:46:54;;;;;;;3.80;2.55;;;22.10;45.20;;;;;;6214768;28;20026;-79
2021/10/09 10:50:06;;;;;;;9.25;4.68;;;22.30;45.20;;;;;;6219220;28;20478;-84
2021/10/09 10:53:13;;;;;;;4.22;2.47;;;22.50;44.90;;;;;;6206887;28;20479;-82
2021/10/09 10:56:14;;;;;;;3.55;2.85;;;22.80;44.50;;;;;;6189510;28;20055;-81
2021/10/09 10:59:45;;;;;;;6.10;2.75;;;23.10;43.80;;;;;;6208936;28;20347;-82
2021/10/09 11:02:48;;;;;;;6.45;2.88;;;23.30;43.20;;;;;;6185538;28;20034;-82
2021/10/09 11:05:52;;;;;;;11.57;3.60;;;23.50;42.70;;;;;;6222300;28;20447;-81
2021/10/09 11:08:58;;;;;;;5.45;2.90;;;23.60;42.60;;;;;;6218260;28;20394;-82
2021/10/09 11:11:59;;;;;;;4.68;2.65;;;23.80;41.90;;;;;;6215964;28;20038;-81
2021/10/09 11:15:06;;;;;;;4.13;2.22;;;24.00;41.30;;;;;;6206452;28;20426;-82
2021/10/09 11:18:07;;;;;;;4.15;2.90;;;24.10;40.90;;;;;;6188539;28;20112;-82
2021/10/09 11:21:09;;;;;;;3.75;2.30;;;24.20;40.20;;;;;;6167171;28;20460;-81
2021/10/09 11:24:10;;;;;;;8.50;4.05;;;24.30;40.30;;;;;;6205385;28;20034;-80
2021/10/09 11:27:12;;;;;;;3.80;2.78;;;24.40;40.20;;;;;;6199000;28;20034;-79
2021/10/09 11:30:14;;;;;;;10.05;2.25;;;24.50;39.80;;;;;;6198279;28;20042;-80
2021/10/09 11:33:22;;;;;;;4.10;2.60;;;24.50;39.90;;;;;;6195465;28;20046;-80
2021/10/09 11:36:24;;;;;;;3.00;2.58;;;24.70;39.40;;;;;;6187703;28;20030;-80
2021/10/09 11:39:27;;;;;;;5.22;2.60;;;24.90;39.20;;;;;;6208783;28;20391;-80
2021/10/09 11:42:33;;;;;;;9.60;2.08;;;25.20;39.00;;;;;;6208982;28;20467;-81
2021/10/09 11:45:44;;;;;;;7.35;2.60;;;25.60;38.60;;;;;;6190948;28;20464;-81
2021/10/09 11:55:48;;;;;;;7.90;3.25;;;26.70;36.60;;;;;;6202593;28;20431;-81
2021/10/09 11:59:02;;;;;;;4.13;3.00;;;27.20;35.70;;;;;;6194801;28;20467;-81
2021/10/09 12:02:03;;;;;;;4.50;2.78;;;27.50;35.00;;;;;;6187040;28;20091;-80
2021/10/09 12:05:06;;;;;;;4.13;2.13;;;27.70;34.50;;;;;;6159784;28;20097;-81
2021/10/09 12:08:17;;;;;;;6.18;2.40;;;28.00;34.10;;;;;;6188561;28;20042;-82
2021/10/09 12:11:24;;;;;;;4.22;2.53;;;28.30;33.70;;;;;;6152208;28;20047;-82
2021/10/09 12:14:32;;;;;;;3.38;2.03;;;28.60;33.10;;;;;;6202754;28;20033;-82
2021/10/09 12:17:38;;;;;;;4.88;2.33;;;28.90;32.80;;;;;;6203858;28;20060;-81
2021/10/09 12:20:39;;;;;;;2.17;1.90;;;29.20;32.50;;;;;;6219589;28;20034;-82
2021/10/09 12:23:40;;;;;;;4.57;2.45;;;29.60;31.70;;;;;;6181879;28;20120;-81
2021/10/09 12:26:41;;;;;;;3.78;2.00;;;30.00;31.00;;;;;;6192638;28;20103;-82
2021/10/09 12:30:12;;;;;;;3.40;2.10;;;30.30;30.10;;;;;;6169248;28;20480;-81
2021/10/09 12:33:43;;;;;;;3.88;2.25;;;30.20;30.00;;;;;;6078626;29;20127;-82
2021/10/09 12:36:45;;;;;;;2.97;2.10;;;29.60;30.60;;;;;;6049183;29;20140;-81
2021/10/09 12:39:48;;;;;;;3.00;2.50;;;29.10;31.20;;;;;;6059243;29;20395;-82
2021/10/09 12:42:54;;;;;;;4.10;2.20;;;28.70;31.60;;;;;;6073504;29;20036;-83
2021/10/09 12:45:55;;;;;;;4.55;1.85;;;28.70;31.80;;;;;;6074911;29;20213;-80
2021/10/09 12:48:56;;;;;;;4.00;2.00;;;28.70;31.50;;;;;;6044909;29;20041;-82
2021/10/09 12:51:57;;;;;;;4.55;1.98;;;28.50;31.90;;;;;;6072886;29;20100;-81
2021/10/09 12:54:59;;;;;;;2.80;2.00;;;28.10;32.40;;;;;;6073860;29;20043;-80
2021/10/09 12:58:04;;;;;;;1.98;1.42;;;27.50;33.00;;;;;;6075512;29;20115;-81
2021/10/09 13:01:05;;;;;;;2.97;1.80;;;27.10;33.50;;;;;;6088836;29;20056;-81
2021/10/09 13:04:06;;;;;;;2.50;1.70;;;26.60;33.70;;;;;;6075506;29;20075;-81
2021/10/09 13:07:09;;;;;;;3.40;1.52;;;26.20;34.00;;;;;;6076735;29;20124;-80
2021/10/09 13:10:11;;;;;;;3.45;1.80;;;25.70;34.50;;;;;;6083223;29;20323;-80
2021/10/09 13:13:14;;;;;;;3.78;1.77;;;25.30;35.10;;;;;;6148994;28;20109;-80
2021/10/09 13:16:15;;;;;;;1.88;1.70;;;25.00;35.80;;;;;;6213741;28;20026;-80
2021/10/09 13:19:16;;;;;;;2.85;1.85;;;24.70;36.20;;;;;;6214680;28;20054;-80
2021/10/09 13:22:17;;;;;;;2.15;1.75;;;25.10;36.90;;;;;;6212141;28;20034;-80
2021/10/09 13:25:18;;;;;;;2.60;1.90;;;24.20;37.20;;;;;;6189657;28;20121;-81
2021/10/09 13:28:19;;;;;;;2.17;1.88;;;24.00;37.80;;;;;;6210869;28;20057;-80
2021/10/09 13:31:21;;;;;;;6.13;1.90;;;23.70;38.20;;;;;;6183177;28;20412;-81
2021/10/09 13:34:21;;;;;;;2.58;2.03;;;23.60;39.00;;;;;;6198306;28;20077;-80
2021/10/09 13:37:26;;;;;;;2.22;1.92;;;23.40;39.50;;;;;;6203463;28;20030;-79
2021/10/09 13:40:27;;;;;;;8.77;2.83;;;23.30;40.00;;;;;;6203094;28;20324;-79
2021/10/09 13:43:28;;;;;;;2.90;1.63;;;23.20;40.30;;;;;;6179216;28;20079;-80
2021/10/09 13:46:31;;;;;;;4.05;1.80;;;23.10;40.80;;;;;;6193706;28;20037;-80
2021/10/09 13:49:32;;;;;;;7.43;2.17;;;23.00;41.00;;;;;;6178496;28;20114;-79
2021/10/09 13:52:33;;;;;;;5.80;2.17;;;22.90;41.30;;;;;;6190749;28;20073;-80
2021/10/09 13:55:34;;;;;;;3.60;1.85;;;22.90;41.60;;;;;;6196062;28;20058;-79
2021/10/09 13:58:35;;;;;;;2.25;1.92;;;23.00;41.70;;;;;;6195693;28;20038;-80
2021/10/09 14:01:36;;;;;;;6.88;2.30;;;23.00;41.70;;;;;;6185334;28;20038;-81
2021/10/09 14:04:38;;;;;;;6.22;2.47;;;23.00;41.80;;;;;;6211284;28;20042;-79
2021/10/09 14:07:39;;;;;;;2.78;2.17;;;23.10;41.90;;;;;;6201732;28;20065;-80
2021/10/09 14:10:40;;;;;;;4.20;2.17;;;23.10;41.90;;;;;;6201402;28;20038;-78
2021/10/09 14:13:41;;;;;;;2.83;1.90;;;23.20;41.90;;;;;;6182875;28;20066;-79
2021/10/09 14:16:42;;;;;;;2.08;1.67;;;23.10;42.00;;;;;;6207484;28;20527;-80
2021/10/09 14:19:43;;;;;;;5.53;2.22;;;23.10;42.20;;;;;;6178667;28;20035;-79
2021/10/09 14:22:44;;;;;;;2.58;2.20;;;23.00;42.30;;;;;;6206731;28;20065;-79
2021/10/09 14:25:45;;;;;;;2.97;2.30;;;23.00;42.40;;;;;;6185460;28;20351;-79
2021/10/09 14:28:46;;;;;;;3.08;1.95;;;22.90;42.50;;;;;;6212229;28;20050;-79
2021/10/09 14:31:47;;;;;;;3.60;1.95;;;22.90;42.70;;;;;;6194620;28;20108;-79
2021/10/09 14:34:48;;;;;;;3.58;2.03;;;22.90;42.90;;;;;;6182026;28;20034;-80
2021/10/09 14:37:49;;;;;;;2.83;1.88;;;22.90;42.90;;;;;;6217883;28;20038;-79
2021/10/09 14:40:50;;;;;;;6.22;2.92;;;22.80;42.90;;;;;;6217177;28;20026;-79
2021/10/09 14:43:51;;;;;;;5.00;2.35;;;22.80;43.00;;;;;;6206791;28;20153;-78
2021/10/09 14:50:01;;;;;;;4.10;2.08;;;23.00;42.80;;;;;;6206823;28;20041;-78
2021/10/09 14:53:13;;;;;;;3.95;2.20;;;23.00;42.80;;;;;;6205245;28;20049;-79
2021/10/09 15:19:16;;;;;;;5.88;2.30;;;22.20;44.40;;;;;;6162923;28;20310;-80
2021/10/09 15:22:17;;;;;;;2.50;2.00;;;22.10;44.50;;;;;;6166750;28;20039;-79
2021/10/09 15:25:19;;;;;;;5.25;2.13;;;22.10;44.70;;;;;;6166542;28;20118;-79
2021/10/09 15:28:20;;;;;;;3.85;2.30;;;22.10;44.80;;;;;;6165609;28;20065;-81
2021/10/09 15:31:21;;;;;;;3.47;2.40;;;22.30;45.00;;;;;;6157960;28;20039;-80
2021/10/09 15:34:22;;;;;;;3.83;2.33;;;21.90;44.90;;;;;;6157913;28;20154;-80
2021/10/09 15:37:23;;;;;;;5.80;2.42;;;21.90;45.00;;;;;;6179125;28;20034;-82
2021/10/09 15:40:24;;;;;;;2.53;1.90;;;21.90;45.00;;;;;;6152250;28;20221;-80
2021/10/09 15:43:25;;;;;;;4.05;2.30;;;21.80;45.00;;;;;;6207498;28;20034;-79
2021/10/09 15:46:26;;;;;;;3.10;2.08;;;21.80;45.00;;;;;;6197070;28;20057;-79
2021/10/09 15:49:28;;;;;;;3.45;2.40;;;21.80;45.10;;;;;;6199954;28;20038;-79
2021/10/09 15:52:28;;;;;;;4.35;2.70;;;21.80;45.20;;;;;;6193410;28;20119;-80
2021/10/09 15:55:30;;;;;;;4.68;2.58;;;21.70;45.30;;;;;;6193183;28;20480;-79
2021/10/09 15:58:32;;;;;;;5.95;3.42;;;21.60;45.50;;;;;;6192511;28;20419;-79
2021/10/09 16:01:33;;;;;;;4.60;3.17;;;21.50;45.60;;;;;;6187953;28;20034;-80
2021/10/09 16:04:34;;;;;;;5.25;2.90;;;21.50;45.80;;;;;;6204288;28;20049;-82
2021/10/09 16:07:37;;;;;;;7.18;3.30;;;21.50;46.10;;;;;;6191626;28;20033;-80
2021/10/09 16:10:38;;;;;;;3.83;2.60;;;21.40;46.20;;;;;;6191374;28;20050;-79
2021/10/09 16:13:39;;;;;;;5.05;3.25;;;21.30;46.50;;;;;;6184395;28;20129;-81
2021/10/09 16:16:40;;;;;;;5.20;3.13;;;21.30;46.70;;;;;;6201040;28;20116;-82
2021/10/09 16:19:41;;;;;;;7.03;3.13;;;21.20;47.00;;;;;;6185142;28;20050;-79
2021/10/09 16:22:42;;;;;;;5.25;3.30;;;21.20;47.20;;;;;;6199744;28;20019;-80
2021/10/09 16:25:43;;;;;;;5.95;3.17;;;21.20;47.50;;;;;;6195361;28;20092;-81
2021/10/09 16:28:44;;;;;;;5.22;3.70;;;21.10;47.80;;;;;;6193644;28;20459;-80
2021/10/09 16:31:45;;;;;;;6.18;3.55;;;21.10;47.90;;;;;;6199839;28;20363;-80
2021/10/09 16:34:46;;;;;;;6.05;3.72;;;21.00;48.10;;;;;;6191765;28;20106;-79
2021/10/09 16:37:47;;;;;;;10.52;3.85;;;21.00;48.30;;;;;;6206422;28;20026;-81
2021/10/09 16:40:52;;;;;;;6.45;3.75;;;21.10;48.60;;;;;;6189847;28;20021;-81
2021/10/09 16:43:52;;;;;;;6.75;3.92;;;20.90;48.70;;;;;;6205545;28;20057;-80
2021/10/09 16:46:53;;;;;;;6.10;3.47;;;20.80;48.80;;;;;;6196004;28;20117;-79
2021/10/09 16:49:54;;;;;;;6.80;4.15;;;20.80;49.00;;;;;;6210511;28;20460;-79
2021/10/09 16:52:58;;;;;;;6.72;3.83;;;20.80;49.20;;;;;;6222645;28;20041;-79
2021/10/09 16:55:59;;;;;;;5.50;3.33;;;20.70;49.30;;;;;;6211244;28;20042;-78
2021/10/09 16:59:00;;;;;;;8.75;4.30;;;20.70;49.40;;;;;;6198599;28;20062;-79
2021/10/09 17:02:01;;;;;;;8.02;3.92;;;20.60;49.50;;;;;;6198293;28;20048;-79
2021/10/09 17:05:02;;;;;;;7.28;4.63;;;20.60;49.60;;;;;;6199420;28;20361;-79
2021/10/09 17:08:04;;;;;;;12.23;4.60;;;20.50;49.70;;;;;;6198811;28;20550;-78
2021/10/09 17:11:06;;;;;;;8.85;4.50;;;20.50;49.80;;;;;;6204700;28;20042;-79
2021/10/09 17:14:06;;;;;;;11.40;4.38;;;20.50;49.90;;;;;;6206759;28;20069;-79
2021/10/09 17:17:08;;;;;;;9.00;4.00;;;20.50;49.90;;;;;;6180578;28;20042;-79
2021/10/09 17:20:09;;;;;;;6.75;4.03;;;20.50;49.90;;;;;;6196150;28;20038;-79
2021/10/09 17:23:10;;;;;;;8.00;4.03;;;20.50;49.90;;;;;;6196732;28;20046;-79
2021/10/09 17:26:11;;;;;;;6.80;4.18;;;20.50;50.00;;;;;;6199021;28;20360;-81
2021/10/09 17:29:12;;;;;;;10.38;4.63;;;20.50;50.00;;;;;;6207889;28;20050;-78
2021/10/09 17:32:13;;;;;;;11.48;4.75;;;20.50;50.00;;;;;;6215906;28;20065;-78
2021/10/09 17:35:17;;;;;;;11.38;4.88;;;20.50;50.00;;;;;;6204747;28;20050;-79
2021/10/09 17:38:18;;;;;;;8.50;5.13;;;20.50;50.10;;;;;;6201001;28;20038;-81
2021/10/09 17:41:21;;;;;;;9.07;4.75;;;20.50;50.20;;;;;;6202904;28;20050;-79
2021/10/09 17:44:21;;;;;;;8.48;4.85;;;20.40;50.30;;;;;;6203933;28;20138;-78
2021/10/09 17:47:22;;;;;;;7.47;4.43;;;20.40;50.40;;;;;;6186312;28;20447;-78
2021/10/09 17:50:30;;;;;;;14.70;5.10;;;20.40;50.50;;;;;;6202190;28;20080;-79
2021/10/09 17:53:31;;;;;;;9.05;5.03;;;20.40;50.60;;;;;;6201693;28;20046;-79
2021/10/09 17:56:33;;;;;;;8.40;4.50;;;20.30;50.80;;;;;;6204125;28;20049;-78
2021/10/09 17:59:34;;;;;;;9.95;5.38;;;20.30;50.90;;;;;;6202487;28;20468;-79
2021/10/09 18:02:35;;;;;;;13.90;6.38;;;20.30;51.00;;;;;;6219372;28;20038;-78
2021/10/09 18:05:37;;;;;;;9.15;5.95;;;20.30;51.20;;;;;;6209549;28;20042;-78
2021/10/09 18:08:38;;;;;;;9.63;5.53;;;20.30;51.30;;;;;;6227275;28;20065;-79
2021/10/09 18:11:39;;;;;;;10.68;5.57;;;20.20;51.50;;;;;;6226022;28;20389;-78